createdAt,value
2018-06-05T00:01:50.150Z,45.03
2018-06-05T00:04:18.706Z,46.10
2018-06-05T00:06:47.214Z,44.80
2018-06-05T00:09:15.744Z,47.83
2018-06-05T00:11:44.195Z,46.67
2018-06-05T00:14:12.720Z,47.93
2018-06-05T00:16:41.176Z,47.37
2018-06-05T00:19:09.649Z,44.53
2018-06-05T00:21:38.497Z,46.77
2018-06-05T00:24:06.976Z,48.13
2018-06-05T00:26:35.435Z,51.57
2018-06-05T00:29:04.948Z,52.07
2018-06-05T00:31:33.452Z,50.13
2018-06-05T00:34:01.908Z,51.50
2018-06-05T00:36:30.685Z,54.50
2018-06-05T00:38:59.144Z,53.67
2018-06-05T00:41:27.560Z,52.93
2018-06-05T00:43:56.087Z,54.93
2018-06-05T00:46:24.521Z,51.37
2018-06-05T00:48:53.059Z,55.47
2018-06-05T00:51:32.621Z,53.77
2018-06-05T00:54:01.117Z,53.67
2018-06-05T00:56:29.553Z,55.53
2018-06-05T00:58:58.132Z,56.53
2018-06-05T01:01:26.620Z,57.27
2018-06-05T01:03:55.428Z,59.67
2018-06-05T01:06:23.922Z,56.63
2018-06-05T01:08:52.408Z,55.70
2018-06-05T01:11:20.847Z,58.63
2018-06-05T01:13:49.332Z,56.37
2018-06-05T01:16:17.764Z,56.47
2018-06-05T01:18:46.239Z,57.57
2018-06-05T01:21:14.723Z,64.37
2018-06-05T01:23:43.193Z,59.77
2018-06-05T01:26:11.652Z,53.70
2018-06-05T01:28:40.424Z,55.63
2018-06-05T01:31:08.896Z,56.53
2018-06-05T01:33:37.380Z,52.67
2018-06-05T01:36:05.863Z,53.43
2018-06-05T01:38:34.320Z,51.37
2018-06-05T01:41:02.764Z,52.57
2018-06-05T01:43:32.096Z,51.03
2018-06-05T01:46:00.557Z,51.07
2018-06-05T01:48:29.041Z,50.63
2018-06-05T01:50:57.505Z,49.93
2018-06-05T01:53:25.953Z,53.87
2018-06-05T01:55:55.211Z,50.60
2018-06-05T01:58:23.660Z,49.90
2018-06-05T02:00:52.116Z,56.23
2018-06-05T02:03:20.585Z,53.03
2018-06-05T02:05:49.060Z,55.17
2018-06-05T02:08:17.505Z,52.47
2018-06-05T02:10:45.960Z,56.13
2018-06-05T02:13:14.472Z,54.07
2018-06-05T02:15:42.909Z,56.43
2018-06-05T02:18:11.350Z,53.23
2018-06-05T02:20:39.844Z,56.80
2018-06-05T02:23:08.285Z,55.57
2018-06-05T02:25:36.848Z,55.23
2018-06-05T02:28:05.337Z,52.17
2018-06-05T02:30:33.890Z,57.13
2018-06-05T02:33:02.325Z,55.03
2018-06-05T02:35:30.837Z,59.87
2018-06-05T02:37:59.391Z,60.33
2018-06-05T02:40:27.838Z,61.07
2018-06-05T02:42:56.304Z,58.07
2018-06-05T02:45:24.833Z,69.97
2018-06-05T02:47:53.285Z,70.10
2018-06-05T02:50:21.747Z,68.33
2018-06-05T02:52:50.225Z,72.10
2018-06-05T02:55:18.696Z,70.73
2018-06-05T02:57:47.225Z,69.00
2018-06-05T03:00:15.669Z,78.83
2018-06-05T03:02:44.117Z,73.10
2018-06-05T03:05:12.613Z,86.10
2018-06-05T03:07:41.029Z,78.73
2018-06-05T03:10:09.512Z,87.77
2018-06-05T03:12:37.973Z,89.70
2018-06-05T03:15:06.461Z,83.87
2018-06-05T03:17:34.909Z,91.93
2018-06-05T03:20:03.893Z,92.13
2018-06-05T03:22:32.359Z,90.73
2018-06-05T03:25:00.809Z,99.33
2018-06-05T03:27:29.301Z,102.87
2018-06-05T03:29:57.724Z,95.00
2018-06-05T03:32:26.161Z,93.70
2018-06-05T03:34:54.657Z,96.70
2018-06-05T03:37:23.470Z,96.83
2018-06-05T03:39:51.905Z,96.77
2018-06-05T03:42:20.071Z,104.40
2018-06-05T03:44:48.256Z,108.67
2018-06-05T03:47:17.111Z,116.53
2018-06-05T03:49:45.598Z,104.57
2018-06-05T03:52:14.072Z,106.43
2018-06-05T03:54:42.534Z,113.53
2018-06-05T03:57:11.020Z,112.30
2018-06-05T03:59:39.485Z,115.83
2018-06-05T04:02:07.950Z,119.00
2018-06-05T04:04:36.458Z,120.57
2018-06-05T04:07:04.902Z,115.33
2018-06-05T04:09:33.360Z,119.03
2018-06-05T04:12:01.812Z,127.80
2018-06-05T04:14:30.701Z,130.23
2018-06-05T04:16:59.182Z,132.67
2018-06-05T04:19:27.707Z,139.57
2018-06-05T04:21:56.297Z,139.50
2018-06-05T04:24:24.814Z,144.00
2018-06-05T04:26:53.320Z,150.37
2018-06-05T04:29:21.786Z,148.30
2018-06-05T04:31:50.269Z,158.33
2018-06-05T04:34:18.400Z,140.63
2018-06-05T04:36:46.966Z,152.03
2018-06-05T04:39:15.425Z,146.50
2018-06-05T04:41:43.939Z,163.50
2018-06-05T04:44:12.393Z,145.17
2018-06-05T04:46:40.868Z,148.13
2018-06-05T04:49:09.357Z,153.37
2018-06-05T04:51:37.842Z,146.53
2018-06-05T04:54:06.353Z,154.97
2018-06-05T04:56:34.908Z,152.23
2018-06-05T04:59:03.380Z,146.03
2018-06-05T05:01:31.841Z,144.27
2018-06-05T05:04:00.460Z,153.73
2018-06-05T05:06:28.992Z,145.47
2018-06-05T05:08:57.444Z,150.53
2018-06-05T05:11:25.928Z,157.73
2018-06-05T05:13:54.408Z,139.00
2018-06-05T05:16:22.891Z,152.00
2018-06-05T05:18:51.482Z,142.53
2018-06-05T05:21:19.663Z,133.33
2018-06-05T05:23:48.112Z,138.53
2018-06-05T05:26:16.561Z,135.70
2018-06-05T05:28:44.992Z,140.77
2018-06-05T05:31:13.204Z,128.20
2018-06-05T05:33:41.740Z,129.70
2018-06-05T05:36:10.237Z,105.17
2018-06-05T05:38:38.744Z,116.03
2018-06-05T05:41:07.256Z,126.03
2018-06-05T05:43:35.785Z,115.83
2018-06-05T05:46:04.008Z,123.00
2018-06-05T05:48:32.497Z,113.70
2018-06-05T05:51:00.996Z,108.00
2018-06-05T05:53:29.449Z,106.83
2018-06-05T05:55:58.098Z,105.37
2018-06-05T05:58:26.582Z,99.33
2018-06-05T06:00:55.231Z,97.70
2018-06-05T06:03:23.760Z,96.57
2018-06-05T06:05:52.269Z,96.50
2018-06-05T06:08:20.734Z,100.40
2018-06-05T06:10:49.194Z,85.97
2018-06-05T06:13:17.642Z,90.43
2018-06-05T06:15:46.109Z,94.60
2018-06-05T06:18:14.809Z,95.63
2018-06-05T06:20:43.353Z,86.53
2018-06-05T06:23:11.790Z,94.17
2018-06-05T06:25:40.250Z,86.77
2018-06-05T06:28:08.729Z,83.17
2018-06-05T06:30:37.184Z,86.40
2018-06-05T06:33:05.711Z,82.67
2018-06-05T06:35:34.177Z,84.53
2018-06-05T06:38:02.692Z,78.73
2018-06-05T06:40:31.324Z,83.77
2018-06-05T06:43:00.241Z,89.50
2018-06-05T06:45:29.053Z,88.03
2018-06-05T06:47:57.730Z,87.10
2018-06-05T06:50:26.220Z,83.23
2018-06-05T06:52:54.670Z,82.23
2018-06-05T06:55:23.134Z,76.03
2018-06-05T06:57:51.612Z,80.83
2018-06-05T07:00:20.115Z,76.73
2018-06-05T07:02:48.589Z,74.87
2018-06-05T07:05:17.070Z,70.93
2018-06-05T07:07:45.541Z,74.63
2018-06-05T07:10:14.108Z,83.37
2018-06-05T07:12:42.552Z,74.10
2018-06-05T07:15:10.988Z,78.30
2018-06-05T07:17:39.512Z,75.67
2018-06-05T07:20:07.973Z,69.90
2018-06-05T07:22:36.445Z,67.87
2018-06-05T07:25:04.964Z,66.53
2018-06-05T07:27:33.564Z,64.80
2018-06-05T07:30:01.997Z,72.07
2018-06-05T07:32:30.475Z,71.63
2018-06-05T07:34:58.953Z,63.87
2018-06-05T07:37:27.497Z,66.20
2018-06-05T07:39:56.009Z,62.10
2018-06-05T07:42:24.509Z,64.93
2018-06-05T07:44:53.067Z,66.83
2018-06-05T07:47:21.619Z,66.80
2018-06-05T07:49:50.094Z,63.30
2018-06-05T07:52:18.594Z,69.63
2018-06-05T07:54:47.229Z,70.77
2018-06-05T07:57:15.720Z,57.43
2018-06-05T07:59:44.277Z,62.43
2018-06-05T08:02:13.619Z,66.80
2018-06-05T08:04:42.097Z,59.20
2018-06-05T08:07:10.695Z,64.27
2018-06-05T08:09:39.157Z,62.17
2018-06-05T08:12:07.741Z,56.90
2018-06-05T08:14:36.386Z,59.73
2018-06-05T08:17:04.930Z,63.23
2018-06-05T08:19:33.435Z,64.87
2018-06-05T08:22:02.020Z,65.40
2018-06-05T08:24:30.628Z,62.80
2018-06-05T08:26:59.033Z,69.47
2018-06-05T08:29:27.504Z,66.23
2018-06-05T08:31:55.983Z,62.27
2018-06-05T08:34:24.408Z,60.17
2018-06-05T08:36:52.844Z,65.40
2018-06-05T08:39:21.609Z,66.53
2018-06-05T08:41:50.066Z,63.60
2018-06-05T08:44:18.540Z,64.67
2018-06-05T08:46:47.026Z,64.80
2018-06-05T08:49:15.528Z,60.90
2018-06-05T08:51:44.076Z,60.80
2018-06-05T08:54:12.617Z,66.07
2018-06-05T08:56:41.057Z,67.10
2018-06-05T08:59:09.488Z,60.73
2018-06-05T09:01:37.985Z,66.93
2018-06-05T09:04:06.480Z,59.10
2018-06-05T09:06:34.922Z,62.60
2018-06-05T09:09:06.138Z,61.10
2018-06-05T09:11:34.688Z,69.07
2018-06-05T09:14:03.170Z,68.57
2018-06-05T09:16:31.640Z,73.57
2018-06-05T09:19:00.140Z,69.47
2018-06-05T09:21:28.666Z,71.00
2018-06-05T09:23:57.184Z,72.27
2018-06-05T09:26:25.677Z,78.30
2018-06-05T09:28:54.218Z,67.50
2018-06-05T09:31:22.657Z,67.43
2018-06-05T09:33:50.764Z,60.53
2018-06-05T09:36:19.218Z,64.10
2018-06-05T09:38:47.736Z,66.27
2018-06-05T09:41:16.386Z,59.30
2018-06-05T09:43:44.909Z,56.63
2018-06-05T09:46:13.409Z,61.90
2018-06-05T09:48:41.849Z,58.87
2018-06-05T09:51:12.220Z,58.43
2018-06-05T09:53:41.613Z,64.37
2018-06-05T09:56:10.066Z,60.53
2018-06-05T09:58:38.551Z,63.23
2018-06-05T10:01:07.027Z,64.73
2018-06-05T10:03:35.507Z,64.40
2018-06-05T10:06:03.991Z,66.47
2018-06-05T10:08:32.441Z,61.97
2018-06-05T10:11:00.902Z,69.23
2018-06-05T10:13:29.336Z,59.33
2018-06-05T10:15:57.899Z,64.93
2018-06-05T10:18:26.388Z,62.37
2018-06-05T10:20:54.929Z,62.40
2018-06-05T10:23:23.792Z,57.23
2018-06-05T10:25:52.292Z,60.27
2018-06-05T10:28:20.788Z,61.60
2018-06-05T10:30:49.333Z,58.97
2018-06-05T10:33:17.840Z,56.33
2018-06-05T10:35:46.385Z,52.30
2018-06-05T10:38:14.888Z,53.97
2018-06-05T10:40:43.371Z,51.73
2018-06-05T10:43:11.519Z,56.27
2018-06-05T10:45:40.013Z,57.83
2018-06-05T10:48:08.527Z,64.00
2018-06-05T10:50:39.576Z,56.87
2018-06-05T10:53:08.612Z,57.70
2018-06-05T10:55:37.272Z,63.33
2018-06-05T10:58:06.009Z,60.33
2018-06-05T11:00:34.434Z,62.03
2018-06-05T11:03:02.910Z,67.27
2018-06-05T11:05:31.481Z,61.37
2018-06-05T11:07:59.997Z,62.10
2018-06-05T11:10:28.755Z,63.37
2018-06-05T11:12:57.308Z,68.03
2018-06-05T11:15:25.851Z,64.07
2018-06-05T11:17:54.312Z,69.93
2018-06-05T11:20:22.830Z,63.53
2018-06-05T11:22:51.298Z,69.47
2018-06-05T11:25:19.730Z,68.93
2018-06-05T11:27:48.192Z,70.47
2018-06-05T11:30:16.717Z,62.97
2018-06-05T11:32:45.181Z,69.67
2018-06-05T11:35:13.649Z,68.37
2018-06-05T11:37:42.129Z,66.67
2018-06-05T11:40:10.562Z,64.07
2018-06-05T11:42:39.085Z,64.37
2018-06-05T11:45:07.608Z,67.53
2018-06-05T11:47:36.066Z,62.53
2018-06-05T11:50:04.701Z,66.27
2018-06-05T11:52:33.130Z,65.30
2018-06-05T11:55:01.693Z,63.33
2018-06-05T11:57:30.151Z,64.17
2018-06-05T11:59:58.691Z,67.87
2018-06-05T12:02:27.198Z,72.70
2018-06-05T12:04:56.092Z,73.73
2018-06-05T12:07:24.528Z,68.00
2018-06-05T12:09:52.992Z,73.23
2018-06-05T12:12:21.464Z,71.67
2018-06-05T12:14:49.925Z,69.53
2018-06-05T12:17:18.427Z,65.63
2018-06-05T12:19:46.884Z,70.27
2018-06-05T12:22:15.357Z,71.40
2018-06-05T12:24:43.823Z,71.67
2018-06-05T12:27:12.354Z,71.23
2018-06-05T12:29:40.835Z,73.87
2018-06-05T12:32:09.294Z,66.87
2018-06-05T12:34:37.759Z,63.43
2018-06-05T12:37:06.349Z,66.87
2018-06-05T12:39:34.883Z,63.53
2018-06-05T12:42:03.390Z,63.80
2018-06-05T12:44:31.873Z,68.53
2018-06-05T12:47:00.406Z,60.50
2018-06-05T12:49:28.895Z,70.33
2018-06-05T12:51:57.332Z,65.83
2018-06-05T12:54:25.889Z,66.17
2018-06-05T12:56:54.376Z,64.43
2018-06-05T12:59:22.817Z,69.43
2018-06-05T13:01:51.328Z,64.17
2018-06-05T13:04:19.811Z,61.07
2018-06-05T13:06:48.268Z,60.40
2018-06-05T13:09:16.420Z,58.73
2018-06-05T13:11:44.927Z,59.20
2018-06-05T13:14:13.337Z,60.83
2018-06-05T13:16:41.844Z,58.57
2018-06-05T13:19:10.333Z,55.67
2018-06-05T13:21:38.800Z,58.63
2018-06-05T13:24:07.356Z,51.97
2018-06-05T13:26:35.808Z,55.10
2018-06-05T13:29:04.249Z,53.63
2018-06-05T13:31:32.766Z,57.33
2018-06-05T13:34:01.206Z,53.80
2018-06-05T13:36:29.689Z,57.87
2018-06-05T13:38:58.200Z,57.53
2018-06-05T13:41:26.637Z,51.27
2018-06-05T13:43:55.099Z,52.73
2018-06-05T13:46:23.580Z,50.50
2018-06-05T13:48:52.012Z,57.87
2018-06-05T13:51:20.526Z,50.33
2018-06-05T13:53:49.205Z,50.10
2018-06-05T13:56:17.641Z,51.50
2018-06-05T13:58:46.213Z,54.83
2018-06-05T14:01:14.684Z,52.93
2018-06-05T14:03:43.250Z,50.40
2018-06-05T14:06:11.781Z,58.57
2018-06-05T14:08:40.249Z,57.47
2018-06-05T14:11:08.717Z,56.63
2018-06-05T14:13:37.255Z,58.13
2018-06-05T14:16:06.163Z,60.40
2018-06-05T14:18:34.617Z,61.80
2018-06-05T14:21:03.088Z,68.70
2018-06-05T14:23:31.982Z,61.97
2018-06-05T14:26:00.520Z,58.50
2018-06-05T14:28:28.968Z,63.27
2018-06-05T14:30:57.472Z,65.87
2018-06-05T14:33:26.309Z,61.47
2018-06-05T14:35:54.833Z,59.93
2018-06-05T14:38:23.548Z,58.10
2018-06-05T14:40:52.001Z,63.60
2018-06-05T14:43:26.947Z,66.80
2018-06-05T14:45:55.523Z,70.10
2018-06-05T14:48:24.000Z,70.37
2018-06-05T14:50:52.492Z,68.50
2018-06-05T14:53:20.942Z,61.27
2018-06-05T14:55:49.443Z,64.10
2018-06-05T14:58:17.988Z,66.77
2018-06-05T15:00:46.453Z,65.03
2018-06-05T15:03:14.936Z,63.37
2018-06-05T15:05:43.389Z,64.43
2018-06-05T15:08:11.864Z,66.03
2018-06-05T15:10:40.328Z,65.67
2018-06-05T15:13:08.923Z,69.40
2018-06-05T15:15:37.361Z,68.33
2018-06-05T15:18:05.829Z,67.37
2018-06-05T15:20:34.300Z,68.27
2018-06-05T15:23:02.798Z,69.07
2018-06-05T15:25:31.389Z,71.47
2018-06-05T15:27:59.848Z,64.73
2018-06-05T15:30:28.296Z,63.17
2018-06-05T15:32:56.787Z,65.97
2018-06-05T15:35:25.249Z,67.63
2018-06-05T15:37:54.025Z,69.57
2018-06-05T15:40:22.517Z,71.87
2018-06-05T15:42:50.978Z,76.77
2018-06-05T15:45:19.457Z,69.17
2018-06-05T15:47:47.936Z,66.37
2018-06-05T15:50:16.428Z,69.90
2018-06-05T15:52:45.069Z,69.20
2018-06-05T15:55:14.193Z,71.13
2018-06-05T15:57:42.660Z,71.50
2018-06-05T16:00:11.109Z,73.17
2018-06-05T16:02:39.573Z,70.50
2018-06-05T16:05:08.045Z,69.90
2018-06-05T16:07:36.553Z,65.83
2018-06-05T16:10:05.097Z,71.10
2018-06-05T16:12:34.278Z,71.10
2018-06-05T16:15:02.749Z,68.77
2018-06-05T16:17:31.252Z,76.50
2018-06-05T16:19:59.684Z,70.00
2018-06-05T16:22:28.140Z,70.60
2018-06-05T16:24:56.587Z,71.17
2018-06-05T16:27:24.696Z,69.30
2018-06-05T16:29:53.149Z,66.27
2018-06-05T16:32:21.625Z,69.63
2018-06-05T16:34:50.096Z,66.70
2018-06-05T16:37:18.533Z,62.27
2018-06-05T16:39:46.956Z,76.23
2018-06-05T16:42:15.424Z,61.43
2018-06-05T16:44:43.919Z,55.80
2018-06-05T16:47:12.410Z,59.07
2018-06-05T16:49:40.829Z,59.43
2018-06-05T16:52:09.265Z,58.90
2018-06-05T16:54:37.726Z,56.03
2018-06-05T16:57:06.269Z,53.83
2018-06-05T16:59:34.720Z,49.47
2018-06-05T17:02:03.209Z,53.27
2018-06-05T17:04:31.748Z,49.23
2018-06-05T17:07:00.117Z,60.87
2018-06-05T17:09:28.593Z,56.17
2018-06-05T17:11:57.072Z,51.37
2018-06-05T17:14:25.574Z,55.13
2018-06-05T17:16:54.058Z,53.63
2018-06-05T17:19:22.540Z,54.37
2018-06-05T17:21:51.026Z,48.60
2018-06-05T17:24:19.706Z,49.10
2018-06-05T17:26:48.163Z,44.67
2018-06-05T17:29:16.604Z,45.67
2018-06-05T17:31:45.219Z,48.97
2018-06-05T17:34:13.685Z,49.67
2018-06-05T17:36:42.136Z,45.53
2018-06-05T17:39:10.592Z,43.80
2018-06-05T17:41:39.160Z,44.73
2018-06-05T17:44:07.609Z,42.60
2018-06-05T17:46:36.138Z,40.37
2018-06-05T17:49:04.668Z,44.10
2018-06-05T17:51:32.840Z,42.17
2018-06-05T17:54:01.332Z,39.20
2018-06-05T17:56:29.808Z,42.10
2018-06-05T17:58:58.240Z,43.77
2018-06-05T18:01:26.969Z,41.87
2018-06-05T18:03:55.457Z,40.60
2018-06-05T18:06:24.996Z,37.80
2018-06-05T18:08:53.519Z,34.20
2018-06-05T18:11:22.017Z,39.37
2018-06-05T18:13:50.537Z,38.37
2018-06-05T18:16:19.135Z,38.47
2018-06-05T18:18:47.628Z,39.87
2018-06-05T18:21:16.199Z,40.60
2018-06-05T18:23:44.656Z,38.73
2018-06-05T18:26:13.270Z,39.07
2018-06-05T18:28:41.764Z,42.23
2018-06-05T18:31:10.244Z,43.13
2018-06-05T18:33:38.736Z,38.93
2018-06-05T18:36:07.221Z,45.73
2018-06-05T18:38:35.368Z,44.60
2018-06-05T18:41:03.937Z,39.53
2018-06-05T18:43:32.496Z,39.73
2018-06-05T18:46:00.966Z,40.77
2018-06-05T18:48:29.458Z,44.00
2018-06-05T18:50:58.004Z,40.90
2018-06-05T18:53:26.474Z,41.27
2018-06-05T18:55:55.749Z,41.00
2018-06-05T18:58:24.208Z,40.43
2018-06-05T19:00:52.717Z,41.93
2018-06-05T19:03:21.204Z,42.87
2018-06-05T19:05:49.692Z,42.90
2018-06-05T19:08:18.481Z,41.37
2018-06-05T19:10:47.093Z,40.77
2018-06-05T19:13:15.606Z,40.00
2018-06-05T19:15:44.144Z,42.60
2018-06-05T19:18:12.733Z,42.10
2018-06-05T19:20:41.213Z,51.53
2018-06-05T19:23:09.696Z,43.57
2018-06-05T19:25:38.181Z,39.33
2018-06-05T19:28:06.954Z,44.20
2018-06-05T19:30:35.479Z,42.87
2018-06-05T19:33:04.046Z,43.47
2018-06-05T19:35:32.564Z,42.83
2018-06-05T19:38:00.772Z,40.90
2018-06-05T19:40:29.247Z,41.23
2018-06-05T19:42:57.719Z,44.20
2018-06-05T19:45:26.210Z,46.30
2018-06-05T19:47:54.658Z,44.40
2018-06-05T19:50:22.816Z,45.57
2018-06-05T19:52:51.324Z,43.50
2018-06-05T19:55:19.835Z,41.70
2018-06-05T19:57:50.464Z,44.83
2018-06-05T20:00:18.954Z,43.80
2018-06-05T20:02:47.436Z,43.93
2018-06-05T20:05:15.956Z,44.53
2018-06-05T20:07:44.529Z,43.17
2018-06-05T20:10:13.002Z,43.73
2018-06-05T20:12:41.543Z,46.67
2018-06-05T20:15:10.015Z,41.30
2018-06-05T20:17:40.484Z,44.63
2018-06-05T20:20:09.014Z,45.03
2018-06-05T20:22:37.184Z,45.67
2018-06-05T20:25:05.683Z,40.67
2018-06-05T20:27:34.265Z,43.10
2018-06-05T20:30:02.780Z,41.30
2018-06-05T20:32:31.227Z,47.33
2018-06-05T20:35:00.079Z,43.87
2018-06-05T20:37:28.544Z,42.07
2018-06-05T20:39:57.013Z,42.47
2018-06-05T20:42:25.504Z,43.50
2018-06-05T20:44:53.969Z,44.17
2018-06-05T20:47:22.449Z,44.30
2018-06-05T20:49:50.904Z,47.47
2018-06-05T20:52:19.553Z,43.77
2018-06-05T20:54:48.014Z,47.53
2018-06-05T20:57:16.487Z,45.37
2018-06-05T20:59:44.970Z,48.77
2018-06-05T21:02:13.408Z,41.77
2018-06-05T21:04:41.841Z,46.53
2018-06-05T21:07:10.329Z,47.10
2018-06-05T21:09:38.801Z,45.20
2018-06-05T21:12:07.052Z,46.57
2018-06-05T21:14:35.537Z,44.97
2018-06-05T21:17:05.366Z,50.80
2018-06-05T21:19:33.893Z,46.87
2018-06-05T21:22:02.325Z,47.23
2018-06-05T21:24:30.529Z,48.47
2018-06-05T21:26:59.000Z,46.57
2018-06-05T21:29:27.514Z,47.77
2018-06-05T21:31:55.964Z,49.40
2018-06-05T21:34:24.433Z,47.53
2018-06-05T21:36:52.940Z,47.53
2018-06-05T21:39:22.785Z,49.60
2018-06-05T21:41:51.246Z,51.90
2018-06-05T21:44:19.784Z,47.83
2018-06-05T21:46:48.372Z,48.60
2018-06-05T21:49:16.865Z,48.20
2018-06-05T21:51:45.349Z,51.07
2018-06-05T21:54:13.922Z,49.57
2018-06-05T21:56:42.496Z,54.47
2018-06-05T21:59:10.975Z,50.33
2018-06-05T22:01:39.533Z,55.33
2018-06-05T22:04:07.986Z,51.10
2018-06-05T22:06:36.424Z,55.83
2018-06-05T22:09:07.801Z,52.07
2018-06-05T22:11:36.301Z,57.30
2018-06-05T22:14:04.483Z,52.70
2018-06-05T22:16:32.677Z,54.10
2018-06-05T22:19:01.206Z,55.30
2018-06-05T22:21:29.777Z,53.67
2018-06-05T22:23:58.291Z,54.77
2018-06-05T22:26:26.833Z,59.53
2018-06-05T22:28:55.769Z,53.83
2018-06-05T22:31:24.229Z,54.83
2018-06-05T22:33:53.368Z,53.23
2018-06-05T22:36:21.809Z,53.23
2018-06-05T22:38:50.260Z,57.20
2018-06-05T22:41:18.737Z,55.37
2018-06-05T22:43:47.164Z,56.67
2018-06-05T22:46:15.732Z,57.33
2018-06-05T22:48:44.201Z,58.90
2018-06-05T22:51:12.621Z,64.93
2018-06-05T22:53:41.075Z,71.30
2018-06-05T22:56:09.528Z,67.90
2018-06-05T22:58:38.048Z,72.10
2018-06-05T23:01:06.549Z,73.10
2018-06-05T23:03:35.433Z,76.13
2018-06-05T23:06:03.900Z,72.70
2018-06-05T23:08:32.345Z,72.93
2018-06-05T23:11:00.816Z,74.33
2018-06-05T23:13:30.984Z,80.00
2018-06-05T23:15:59.473Z,83.33
2018-06-05T23:18:27.913Z,83.33
2018-06-05T23:20:56.369Z,79.47
2018-06-05T23:23:24.836Z,86.00
2018-06-05T23:25:53.276Z,84.93
2018-06-05T23:28:21.784Z,80.10
2018-06-05T23:30:50.346Z,93.37
2018-06-05T23:33:18.784Z,80.43
2018-06-05T23:35:47.267Z,84.40
2018-06-05T23:38:16.050Z,90.87
2018-06-05T23:40:44.729Z,81.00
2018-06-05T23:43:13.163Z,83.97
2018-06-05T23:45:41.624Z,80.13
2018-06-05T23:48:10.153Z,85.80
2018-06-05T23:50:38.641Z,82.50
2018-06-05T23:53:07.076Z,87.93
2018-06-05T23:55:35.566Z,86.93
2018-06-05T23:58:04.037Z,86.80
